• Join FlightAware (Why Join?)
  • Login
  • US Flag 
11:27AM EDT


 

Airport Tracker/Info


-or-


 

Live Flight TrackerFlight Track Log ✈ ASH278A ✈ 27-Jul-2013 ✈ KCHS - KCLT

Flight Track Log - Related Links

Times and Time Zones

All times are in EDT time to prevent confusion due to time zone crossing. See the ASH278A flight status page for this flight to view local times or setup timezone preferences in your user account.

Time Position Orientation Groundspeed Altitude Reporting Facility
EDT Latitude Longitude Course Direction KTS MPH feet Rate Location/Type
10:46AM 32.8786 -79.9911 13° North 236 272 4,000  Level Jacksonville Center
10:47AM 32.9294 -79.9400 40° Northeast 236 272 6,400 2,700 Climbing Jacksonville Center
10:48AM 33.0003 -79.9328 North 241 277 9,400 2,400 Climbing Jacksonville Center
10:49AM 33.0817 -79.9350 359° North 255 293 11,200 1,680 Climbing Jacksonville Center
10:50AM 33.1925 -79.9389 358° North 319 367 12,800 1,680 Climbing Jacksonville Center
10:51AM 33.4743 -79.8597 13° North  Level FlightAware Approximate
10:51AM 33.2964 -79.9206 North 349 402 14,600  Level Jacksonville Center
10:52AM 33.4064 -79.8894 13° North 382 440 16,400 1,740 Climbing Jacksonville Center
10:53AM 33.5183 -79.8608 12° North 396 456 18,100 1,260 Climbing Jacksonville Center
10:54AM 33.6328 -79.8542 North 406 467 19,000 420 Climbing Jacksonville Center
10:55AM 33.7489 -79.9078 339° North 411 473 19,000  Level Jacksonville Center
10:56AM 33.8628 -79.9589 340° North 423 487 19,000  Level Jacksonville Center
10:57AM 33.9767 -80.0103 339° North 429 494 19,000  Level Jacksonville Center
10:58AM 34.0925 -80.0614 340° North 436 502 19,000  Level Jacksonville Center
10:59AM 34.2044 -80.1131 339° North 436 502 19,000 -1,140 Level Jacksonville Center
11:00AM 34.3161 -80.1647 339° North 436 502 16,800 -2,400 Descending Jacksonville Center
11:01AM 34.4236 -80.2169 338° Northwest 431 496 14,300 -2,160 Descending Jacksonville Center
11:03AM 34.6078 -80.3011 339° North 396 456 11,000 -1,200 Descending Atlanta Center
11:04AM 34.6944 -80.3428 338° Northwest 317 365 11,000  Level Atlanta Center
11:05AM 34.7547 -80.4083 318° Northwest 282 325 11,000  Level Atlanta Center
11:06AM 34.8156 -80.4842 314° West 306 352 11,000  Level Atlanta Center
11:07AM 34.8825 -80.5675 314° West 306 352 11,000  Level Atlanta Center
11:08AM 34.9408 -80.6383 315° West 301 346 11,000  Level Atlanta Center
11:09AM 34.9992 -80.7122 314° West 301 346 11,000 -960 Level Atlanta Center
11:10AM 35.0556 -80.7833 314° West 298 343 9,100 -1,020 Descending Atlanta Center
11:11AM 35.1294 -80.8161 340° North 280 322 9,000 -840 Descending Atlanta Center
11:12AM 35.2042 -80.8056 North 220 253 7,300 -1,440 Descending Atlanta Center
11:13AM 35.2464 -80.7506 47° Northeast 216 249 5,900 -1,380 Descending Atlanta Center
11:14AM 35.2847 -80.6981 48° Northeast 216 249 4,700 -1,020 Descending Atlanta Center
11:15AM 35.3322 -80.6758 21° North 202 232 4,000 -360 Descending Atlanta Center
11:16AM 35.3728 -80.7122 324° Northwest 181 208 4,000  Level Atlanta Center
11:17AM 35.3572 -80.7511 244° Southwest 164 189 4,000 -120 Level Atlanta Center
11:18AM 35.3228 -80.7933 225° Southwest 162 186 3,800 -600 Descending Atlanta Center
11:19AM 35.2925 -80.8353 229° Southwest 168 193 2,800 -900 Descending Atlanta Center
11:20AM 35.2644 -80.8744 229° Southwest 151 174 2,000 -780 Descending Atlanta Center
11:21AM 35.2383 -80.9136 231° Southwest 134 154 1,300 -720 Descending Atlanta Center